^^
Saratoga-Weather Station Historical Data
Daily Summary for April 19, 2021 Units:  English    Metric   Both
Daily Weekly Monthly Yearly Custom
  High: Low: Average:
Temperature: 73.6 °F 62.8 °F 67.6 °F
Dew Point: 63.7 °F 59.7 °F 61.2 °F
Humidity: 90% 70% 80%
Wind Speed: 8.1mph 0mph 1.4mph
Wind Gust: 9mph - -
Wind- - West
Pressure: 30 in 29.9 in -
Precipitation: 0 in    
Historical Graphs
 
 
Tabular Data for April 19, 2021
Time Temperature Dew Point Pressure Wind Wind Speed Wind Gust Humidity Rainfall Rate (Hourly) solar
00:00 73.6 °F 63.7 °F 29.9 in West 2 mph 4 mph 71% 0 in 0 W/m2
00:05 73.4 °F 63.5 °F 29.9 in WNW 2 mph 2 mph 71% 0 in 0 W/m2
00:10 73.2 °F 63.3 °F 29.9 in WSW 0.9 mph 4 mph 71% 0 in 0 W/m2
00:15 72.9 °F 63 °F 29.9 in West 2 mph 4 mph 71% 0 in 0 W/m2
00:20 72.7 °F 63.1 °F 29.9 in West 2 mph 3 mph 72% 0 in 0 W/m2
00:25 72.7 °F 63.1 °F 29.9 in West 2.9 mph 6 mph 72% 0 in 0 W/m2
00:30 72.7 °F 63.1 °F 29.9 in West 0.9 mph 6 mph 72% 0 in 0 W/m2
00:35 72.7 °F 63.1 °F 29.9 in West 2.9 mph 4 mph 72% 0 in 0 W/m2
00:40 72.5 °F 63 °F 29.9 in WNW 2 mph 5 mph 72% 0 in 0 W/m2
00:45 72.3 °F 62.8 °F 29.9 in WSW 2 mph 7 mph 72% 0 in 0 W/m2
00:50 72.3 °F 62.8 °F 29.9 in WSW 2.9 mph 4 mph 72% 0 in 0 W/m2
00:55 72.1 °F 62.6 °F 29.9 in West 2 mph 7 mph 72% 0 in 0 W/m2
01:00 72.1 °F 62.6 °F 29.9 in WSW 4 mph 5 mph 72% 0 in 0 W/m2
01:05 72 °F 62.4 °F 29.9 in West 2.9 mph 4 mph 72% 0 in 0 W/m2
01:10 72 °F 62.4 °F 29.9 in WSW 2.9 mph 7 mph 72% 0 in 0 W/m2
01:15 72 °F 62.1 °F 29.9 in West 2 mph 6 mph 71% 0 in 0 W/m2
01:20 72 °F 62.1 °F 29.9 in SSW 2.9 mph 4 mph 71% 0 in 0 W/m2
01:25 72 °F 61.7 °F 29.9 in West 4 mph 6 mph 70% 0 in 0 W/m2
01:30 72 °F 61.7 °F 29.9 in West 2.9 mph 4 mph 70% 0 in 0 W/m2
01:35 71.8 °F 61.9 °F 29.9 in West 2.9 mph 3 mph 71% 0 in 0 W/m2
01:40 71.8 °F 61.9 °F 29.9 in West 2 mph 5 mph 71% 0 in 0 W/m2
01:45 71.6 °F 61.7 °F 29.9 in West 2.9 mph 4 mph 71% 0 in 0 W/m2
01:50 71.4 °F 61.5 °F 29.9 in West 4 mph 4 mph 71% 0 in 0 W/m2
01:55 71.2 °F 61.7 °F 29.9 in WNW 2.9 mph 6 mph 72% 0 in 0 W/m2
02:00 71.1 °F 61.5 °F 29.9 in WSW 8.1 mph 8 mph 72% 0 in 0 W/m2
02:05 70.9 °F 61.9 °F 29.9 in West 6.9 mph 7 mph 73% 0 in 0 W/m2
02:10 70.5 °F 61.5 °F 29.9 in West 2.9 mph 7 mph 73% 0 in 0 W/m2
02:15 70.5 °F 61.5 °F 29.9 in WSW 4.9 mph 7 mph 73% 0 in 0 W/m2
02:20 70.3 °F 61.3 °F 29.9 in WNW 4 mph 9 mph 73% 0 in 0 W/m2
02:25 70.3 °F 61.3 °F 29.9 in WNW 4 mph 8 mph 73% 0 in 0 W/m2
02:30 70.3 °F 61.7 °F 29.9 in NNW 2.9 mph 7 mph 74% 0 in 0 W/m2
02:35 70.2 °F 61.5 °F 29.9 in WNW 2.9 mph 8 mph 74% 0 in 0 W/m2
02:40 70.2 °F 61.5 °F 29.9 in WSW 4 mph 8 mph 74% 0 in 0 W/m2
02:45 69.8 °F 61.5 °F 29.9 in West 6.9 mph 8 mph 75% 0 in 0 W/m2
02:50 69.6 °F 61.3 °F 29.9 in WNW 2.9 mph 8 mph 75% 0 in 0 W/m2
02:55 69.6 °F 61.3 °F 29.9 in West 4 mph 6 mph 75% 0 in 0 W/m2
03:00 69.6 °F 61.3 °F 29.9 in West 4 mph 8 mph 75% 0 in 0 W/m2
03:05 69.4 °F 61.2 °F 29.9 in West 4 mph 5 mph 75% 0 in 0 W/m2
03:10 69.4 °F 61.2 °F 29.9 in WNW 2.9 mph 8 mph 75% 0 in 0 W/m2
03:15 69.4 °F 61.2 °F 29.9 in West 2 mph 3 mph 75% 0 in 0 W/m2
03:20 69.4 °F 61.5 °F 29.9 in WNW 0.9 mph 7 mph 76% 0 in 0 W/m2
03:25 69.1 °F 61.5 °F 29.9 in WNW 2 mph 2 mph 77% 0 in 0 W/m2
03:30 68.5 °F 61.3 °F 29.9 in WNW 0.9 mph 1 mph 78% 0 in 0 W/m2
03:35 68.2 °F 61 °F 29.9 in Calm     78% 0 in 0 W/m2
03:40 67.8 °F 61 °F 29.9 in WNW 0.9 mph 1 mph 79% 0 in 0 W/m2
03:45 67.5 °F 60.8 °F 29.9 in Calm     79% 0 in 0 W/m2
03:50 67.1 °F 60.8 °F 29.9 in Calm     80% 0 in 0 W/m2
03:55 66.7 °F 60.8 °F 29.9 in Calm     81% 0 in 0 W/m2
04:00 66.4 °F 60.4 °F 29.9 in Calm     81% 0 in 0 W/m2
04:05 66 °F 60.4 °F 29.9 in Calm     82% 0 in 0 W/m2
04:10 65.8 °F 60.6 °F 29.9 in Calm     83% 0 in 0 W/m2
04:15 65.5 °F 60.3 °F 29.9 in Calm     83% 0 in 0 W/m2
04:21 65.1 °F 60.1 °F 29.9 in Calm     84% 0 in 0 W/m2
04:26 64.9 °F 59.9 °F 29.9 in Calm     84% 0 in 0 W/m2
04:31 64.8 °F 60.1 °F 29.9 in Calm     85% 0 in 0 W/m2
04:36 64.6 °F 60.3 °F 29.9 in Calm     86% 0 in 0 W/m2
04:41 64.6 °F 60.3 °F 29.9 in Calm     86% 0 in 0 W/m2
04:46 64.2 °F 59.9 °F 29.9 in Calm     86% 0 in 0 W/m2
04:51 64.2 °F 60.3 °F 29.9 in Calm     87% 0 in 0 W/m2
04:56 64 °F 60.1 °F 29.9 in Calm     87% 0 in 0 W/m2
05:01 63.9 °F 59.9 °F 29.9 in Calm     87% 0 in 0 W/m2
05:06 63.9 °F 59.9 °F 29.9 in Calm     87% 0 in 0 W/m2
05:11 63.7 °F 60.1 °F 29.9 in Calm     88% 0 in 0 W/m2
05:16 63.5 °F 59.9 °F 29.9 in Calm   1 mph 88% 0 in 0 W/m2
05:21 63.3 °F 59.7 °F 29.9 in Calm     88% 0 in 0 W/m2
05:26 63.3 °F 60.1 °F 29.9 in Calm   1 mph 89% 0 in 0 W/m2
05:31 63.1 °F 59.9 °F 30 in Calm     89% 0 in 0 W/m2
05:36 63.1 °F 59.9 °F 30 in Calm   1 mph 89% 0 in 5 W/m2
05:41 63 °F 59.7 °F 30 in Calm     89% 0 in 7 W/m2
05:46 63 °F 59.7 °F 30 in Calm     89% 0 in 9 W/m2
05:51 63 °F 59.7 °F 30 in Calm     89% 0 in 11 W/m2
05:56 63 °F 59.9 °F 30 in Calm     90% 0 in 14 W/m2
06:01 62.8 °F 59.7 °F 30 in Calm     90% 0 in 14 W/m2
06:06 62.8 °F 59.7 °F 30 in Calm     90% 0 in 12 W/m2
06:11 63 °F 59.9 °F 30 in Calm     90% 0 in 19 W/m2
06:16 63 °F 59.9 °F 30 in WNW 0.9 mph 1 mph 90% 0 in 19 W/m2
06:21 63 °F 59.9 °F 30 in Calm     90% 0 in 21 W/m2
06:26 63.1 °F 60.1 °F 30 in Calm     90% 0 in 23 W/m2
06:31 63.3 °F 60.3 °F 30 in Calm   1 mph 90% 0 in 21 W/m2
06:36 63.7 °F 60.4 °F 30 in Calm   1 mph 89% 0 in 21 W/m2
06:41 63.7 °F 60.4 °F 30 in Calm     89% 0 in 23 W/m2
06:46 63.9 °F 60.6 °F 30 in Calm   1 mph 89% 0 in 21 W/m2
06:51 64 °F 60.8 °F 30 in WNW 0.9 mph 1 mph 89% 0 in 21 W/m2
06:56 64.2 °F 60.6 °F 30 in Calm     88% 0 in 25 W/m2
07:01 64.2 °F 60.6 °F 30 in Calm     88% 0 in 28 W/m2
07:06 64.4 °F 60.8 °F 30 in Calm     88% 0 in 39 W/m2
07:11 64.6 °F 61 °F 30 in WNW 0.9 mph 1 mph 88% 0 in 39 W/m2
07:16 64.8 °F 60.8 °F 30 in West 2 mph 2 mph 87% 0 in 49 W/m2
07:21 64.9 °F 61 °F 30 in Calm     87% 0 in 54 W/m2
07:26 65.1 °F 61.2 °F 30 in Calm   1 mph 87% 0 in 63 W/m2
07:31 65.3 °F 61.3 °F 30 in Calm     87% 0 in 69 W/m2
07:36 65.5 °F 61.2 °F 30 in Calm     86% 0 in 91 W/m2
07:41 65.8 °F 61.5 °F 30 in Calm     86% 0 in 223 W/m2
07:46 66.4 °F 62.1 °F 30 in West 0.9 mph 1 mph 86% 0 in 274 W/m2
07:51 67.3 °F 62.6 °F 30 in North 2 mph 2 mph 85% 0 in 304 W/m2
07:56 68.4 °F 63 °F 30 in Calm   2 mph 83% 0 in 346 W/m2
08:01 69.3 °F 63.1 °F 30 in NW 0.9 mph 2 mph 81% 0 in 348 W/m2
08:06 70.3 °F 63.5 °F 30 in WSW 2 mph 3 mph 79% 0 in 350 W/m2
08:11 71.2 °F 63.7 °F 30 in Calm   3 mph 77% 0 in 186 W/m2
Juneau County Weather
Compliments of Weather Underground - 2 mb